sensor_id;sensor_type;location;lat;lon;timestamp;pressure;altitude;pressure_sealevel;temperature;humidity
28648;BME280;17137;51.494;-0.262;2023-08-21T00:00:07;49992.00;;;-145.72;91.67
28648;BME280;17137;51.494;-0.262;2023-08-21T00:00:37;49984.98;;;-145.72;91.57
28648;BME280;17137;51.494;-0.262;2023-08-21T00:01:07;49988.18;;;-145.72;91.28
28648;BME280;17137;51.494;-0.262;2023-08-21T00:01:38;49993.11;;;-145.72;91.71
28648;BME280;17137;51.494;-0.262;2023-08-21T00:02:08;49996.44;;;-145.72;91.95
28648;BME280;17137;51.494;-0.262;2023-08-21T00:02:39;49997.06;;;-145.72;91.76
28648;BME280;17137;51.494;-0.262;2023-08-21T00:03:09;50000.26;;;-145.72;92.58
28648;BME280;17137;51.494;-0.262;2023-08-21T00:03:39;50010.62;;;-145.72;93.18
28648;BME280;17137;51.494;-0.262;2023-08-21T00:04:09;50000.51;;;-145.72;92.76
28648;BME280;17137;51.494;-0.262;2023-08-21T00:04:40;49997.18;;;-145.72;92.41
28648;BME280;17137;51.494;-0.262;2023-08-21T00:05:10;50001.00;;;-145.72;92.49
28648;BME280;17137;51.494;-0.262;2023-08-21T00:05:41;49993.98;;;-145.72;92.52
28648;BME280;17137;51.494;-0.262;2023-08-21T00:06:11;50005.07;;;-145.72;92.48
28648;BME280;17137;51.494;-0.262;2023-08-21T00:06:41;50004.33;;;-145.72;92.39
28648;BME280;17137;51.494;-0.262;2023-08-21T00:07:12;50009.63;;;-145.72;92.36
28648;BME280;17137;51.494;-0.262;2023-08-21T00:07:42;50002.97;;;-145.72;92.68
28648;BME280;17137;51.494;-0.262;2023-08-21T00:08:18;49998.54;;;-145.72;92.98
28648;BME280;17137;51.494;-0.262;2023-08-21T00:08:48;49998.04;;;-145.72;92.71
28648;BME280;17137;51.494;-0.262;2023-08-21T00:09:18;49993.85;;;-145.72;92.65
28648;BME280;17137;51.494;-0.262;2023-08-21T00:09:49;49998.41;;;-145.72;92.66
28648;BME280;17137;51.494;-0.262;2023-08-21T00:10:19;50012.71;;;-145.72;93.37
28648;BME280;17137;51.494;-0.262;2023-08-21T00:10:55;50010.25;;;-145.72;93.31
28648;BME280;17137;51.494;-0.262;2023-08-21T00:11:26;50001.37;;;-145.72;93.04
28648;BME280;17137;51.494;-0.262;2023-08-21T00:11:56;49999.03;;;-145.72;92.69
28648;BME280;17137;51.494;-0.262;2023-08-21T00:12:27;50012.09;;;-145.72;92.97
28648;BME280;17137;51.494;-0.262;2023-08-21T00:12:57;50006.05;;;-145.72;93.41
28648;BME280;17137;51.494;-0.262;2023-08-21T00:13:28;50007.41;;;-145.72;93.19
28648;BME280;17137;51.494;-0.262;2023-08-21T00:13:58;50002.11;;;-145.72;93.32
28648;BME280;17137;51.494;-0.262;2023-08-21T00:14:28;50012.83;;;-145.72;93.85
28648;BME280;17137;51.494;-0.262;2023-08-21T00:14:59;50006.79;;;-145.72;93.78
28648;BME280;17137;51.494;-0.262;2023-08-21T00:15:29;50009.01;;;-145.72;93.68
28648;BME280;17137;51.494;-0.262;2023-08-21T00:16:00;49997.92;;;-145.72;93.72
28648;BME280;17137;51.494;-0.262;2023-08-21T00:16:30;50009.26;;;-145.72;93.68
28648;BME280;17137;51.494;-0.262;2023-08-21T00:17:01;50013.08;;;-145.72;93.51
28648;BME280;17137;51.494;-0.262;2023-08-21T00:17:32;50000.63;;;-145.72;93.37
28648;BME280;17137;51.494;-0.262;2023-08-21T00:18:02;50008.89;;;-145.72;93.31
28648;BME280;17137;51.494;-0.262;2023-08-21T00:18:32;50007.66;;;-145.72;92.91
28648;BME280;17137;51.494;-0.262;2023-08-21T00:19:03;49993.48;;;-145.72;92.74
28648;BME280;17137;51.494;-0.262;2023-08-21T00:19:33;49998.91;;;-145.72;92.68
28648;BME280;17137;51.494;-0.262;2023-08-21T00:20:05;50008.15;;;-145.72;93.06
28648;BME280;17137;51.494;-0.262;2023-08-21T00:20:35;49996.69;;;-145.72;92.91
28648;BME280;17137;51.494;-0.262;2023-08-21T00:21:06;50001.74;;;-145.72;92.78
28648;BME280;17137;51.494;-0.262;2023-08-21T00:21:36;50017.27;;;-145.72;92.76
28648;BME280;17137;51.494;-0.262;2023-08-21T00:22:06;50012.46;;;-145.72;92.75
28648;BME280;17137;51.494;-0.262;2023-08-21T00:22:37;50004.21;;;-145.72;93.05
28648;BME280;17137;51.494;-0.262;2023-08-21T00:23:08;50009.75;;;-145.72;93.33
28648;BME280;17137;51.494;-0.262;2023-08-21T00:23:38;50002.23;;;-145.72;93.53
28648;BME280;17137;51.494;-0.262;2023-08-21T00:24:08;50006.67;;;-145.72;93.54
28648;BME280;17137;51.494;-0.262;2023-08-21T00:24:38;50005.07;;;-145.72;93.38
28648;BME280;17137;51.494;-0.262;2023-08-21T00:25:09;49997.80;;;-145.72;93.17
28648;BME280;17137;51.494;-0.262;2023-08-21T00:25:39;50013.57;;;-145.72;92.95
28648;BME280;17137;51.494;-0.262;2023-08-21T00:26:10;50023.68;;;-145.72;94.32
28648;BME280;17137;51.494;-0.262;2023-08-21T00:26:40;50020.35;;;-145.72;94.54
28648;BME280;17137;51.494;-0.262;2023-08-21T00:27:10;50015.79;;;-145.72;94.41
28648;BME280;17137;51.494;-0.262;2023-08-21T00:27:41;50015.67;;;-145.72;94.59
28648;BME280;17137;51.494;-0.262;2023-08-21T00:28:12;50020.48;;;-145.72;94.76
28648;BME280;17137;51.494;-0.262;2023-08-21T00:28:42;50010.00;;;-145.72;94.43
28648;BME280;17137;51.494;-0.262;2023-08-21T00:29:12;50010.74;;;-145.72;93.97
28648;BME280;17137;51.494;-0.262;2023-08-21T00:29:43;50014.68;;;-145.72;94.40
28648;BME280;17137;51.494;-0.262;2023-08-21T00:30:13;50024.67;;;-145.72;94.60
28648;BME280;17137;51.494;-0.262;2023-08-21T00:30:43;50016.41;;;-145.72;94.45
28648;BME280;17137;51.494;-0.262;2023-08-21T00:31:14;50027.13;;;-145.72;94.41
28648;BME280;17137;51.494;-0.262;2023-08-21T00:31:44;50025.78;;;-145.72;94.44
28648;BME280;17137;51.494;-0.262;2023-08-21T00:32:15;50030.95;;;-145.72;94.71
28648;BME280;17137;51.494;-0.262;2023-08-21T00:32:45;50028.49;;;-145.72;94.76
28648;BME280;17137;51.494;-0.262;2023-08-21T00:33:16;50035.64;;;-145.72;95.44
28648;BME280;17137;51.494;-0.262;2023-08-21T00:33:47;50036.13;;;-145.72;95.87
28648;BME280;17137;51.494;-0.262;2023-08-21T00:34:17;50032.56;;;-145.72;95.74
28648;BME280;17137;51.494;-0.262;2023-08-21T00:34:48;50026.02;;;-145.72;95.45
28648;BME280;17137;51.494;-0.262;2023-08-21T00:35:18;50020.23;;;-145.72;95.16
28648;BME280;17137;51.494;-0.262;2023-08-21T00:35:48;50019.74;;;-145.72;95.43
28648;BME280;17137;51.494;-0.262;2023-08-21T00:36:19;50031.32;;;-145.72;95.87
28648;BME280;17137;51.494;-0.262;2023-08-21T00:36:49;50033.79;;;-145.72;96.07
28648;BME280;17137;51.494;-0.262;2023-08-21T00:37:19;50027.75;;;-145.72;96.02
28648;BME280;17137;51.494;-0.262;2023-08-21T00:37:50;50027.38;;;-145.72;95.70
28648;BME280;17137;51.494;-0.262;2023-08-21T00:38:20;50016.53;;;-145.72;95.27
28648;BME280;17137;51.494;-0.262;2023-08-21T00:38:51;50021.34;;;-145.72;94.92
28648;BME280;17137;51.494;-0.262;2023-08-21T00:39:21;50025.04;;;-145.72;94.72
28648;BME280;17137;51.494;-0.262;2023-08-21T00:39:51;50021.34;;;-145.72;94.61
28648;BME280;17137;51.494;-0.262;2023-08-21T00:40:22;50028.61;;;-145.72;94.70
28648;BME280;17137;51.494;-0.262;2023-08-21T00:40:52;50021.46;;;-145.72;95.36
28648;BME280;17137;51.494;-0.262;2023-08-21T00:41:23;50025.28;;;-145.72;95.25
28648;BME280;17137;51.494;-0.262;2023-08-21T00:41:54;50028.73;;;-145.72;95.17
28648;BME280;17137;51.494;-0.262;2023-08-21T00:42:24;50030.58;;;-145.72;95.40
28648;BME280;17137;51.494;-0.262;2023-08-21T00:42:55;50031.20;;;-145.72;96.02
28648;BME280;17137;51.494;-0.262;2023-08-21T00:43:25;50027.26;;;-145.72;95.77
28648;BME280;17137;51.494;-0.262;2023-08-21T00:43:55;50028.86;;;-145.72;95.78
28648;BME280;17137;51.494;-0.262;2023-08-21T00:44:26;50030.21;;;-145.72;95.89
28648;BME280;17137;51.494;-0.262;2023-08-21T00:44:56;50033.91;;;-145.72;95.72
28648;BME280;17137;51.494;-0.262;2023-08-21T00:45:26;50036.01;;;-145.72;95.87
28648;BME280;17137;51.494;-0.262;2023-08-21T00:45:57;50046.48;;;-145.72;95.93
28648;BME280;17137;51.494;-0.262;2023-08-21T00:46:28;50039.46;;;-145.72;95.94
28648;BME280;17137;51.494;-0.262;2023-08-21T00:46:58;50021.59;;;-145.72;95.79
28648;BME280;17137;51.494;-0.262;2023-08-21T00:47:29;50018.75;;;-145.72;95.60
28648;BME280;17137;51.494;-0.262;2023-08-21T00:47:59;50026.15;;;-145.72;95.55
28648;BME280;17137;51.494;-0.262;2023-08-21T00:48:30;50028.98;;;-145.72;95.38
28648;BME280;17137;51.494;-0.262;2023-08-21T00:49:00;50031.08;;;-145.72;95.38
28648;BME280;17137;51.494;-0.262;2023-08-21T00:49:31;50039.33;;;-145.72;95.55
28648;BME280;17137;51.494;-0.262;2023-08-21T00:50:02;50030.83;;;-145.72;95.69
28648;BME280;17137;51.494;-0.262;2023-08-21T00:50:33;50036.75;;;-145.72;96.19
28648;BME280;17137;51.494;-0.262;2023-08-21T00:51:03;50031.20;;;-145.72;96.12
28648;BME280;17137;51.494;-0.262;2023-08-21T00:51:35;50040.69;;;-145.72;96.29
28648;BME280;17137;51.494;-0.262;2023-08-21T00:52:07;50031.57;;;-145.72;96.12
28648;BME280;17137;51.494;-0.262;2023-08-21T00:52:45;50040.57;;;-145.72;96.17
28648;BME280;17137;51.494;-0.262;2023-08-21T00:53:16;50036.99;;;-145.72;96.30
28648;BME280;17137;51.494;-0.262;2023-08-21T00:53:47;50045.00;;;-145.72;96.93
28648;BME280;17137;51.494;-0.262;2023-08-21T00:54:18;50039.58;;;-145.72;96.84
28648;BME280;17137;51.494;-0.262;2023-08-21T00:54:50;50042.54;;;-145.72;96.94
28648;BME280;17137;51.494;-0.262;2023-08-21T00:55:21;50038.23;;;-145.72;97.51
28648;BME280;17137;51.494;-0.262;2023-08-21T00:55:51;50058.19;;;-145.72;97.41
28648;BME280;17137;51.494;-0.262;2023-08-21T00:56:22;50040.81;;;-145.72;97.09
28648;BME280;17137;51.494;-0.262;2023-08-21T00:56:52;50044.27;;;-145.72;97.28
28648;BME280;17137;51.494;-0.262;2023-08-21T00:57:23;50044.88;;;-145.72;97.85
28648;BME280;17137;51.494;-0.262;2023-08-21T00:57:53;50040.94;;;-145.72;98.15
28648;BME280;17137;51.494;-0.262;2023-08-21T00:58:24;50043.65;;;-145.72;97.98
28648;BME280;17137;51.494;-0.262;2023-08-21T00:58:55;50045.62;;;-145.72;97.68
28648;BME280;17137;51.494;-0.262;2023-08-21T00:59:26;50049.57;;;-145.72;97.38
28648;BME280;17137;51.494;-0.262;2023-08-21T00:59:56;50042.42;;;-145.72;97.14
28648;BME280;17137;51.494;-0.262;2023-08-21T01:00:27;50042.79;;;-145.72;97.17
28648;BME280;17137;51.494;-0.262;2023-08-21T01:00:58;50039.33;;;-145.72;97.22
28648;BME280;17137;51.494;-0.262;2023-08-21T01:01:34;50043.77;;;-145.72;97.17
28648;BME280;17137;51.494;-0.262;2023-08-21T01:02:05;50046.73;;;-145.72;97.11
28648;BME280;17137;51.494;-0.262;2023-08-21T01:02:36;50042.66;;;-145.72;97.12
28648;BME280;17137;51.494;-0.262;2023-08-21T01:03:06;50051.78;;;-145.72;96.97
28648;BME280;17137;51.494;-0.262;2023-08-21T01:03:37;50043.28;;;-145.72;97.08
28648;BME280;17137;51.494;-0.262;2023-08-21T01:04:07;50043.77;;;-145.72;96.99
28648;BME280;17137;51.494;-0.262;2023-08-21T01:04:38;50047.47;;;-145.72;96.83
28648;BME280;17137;51.494;-0.262;2023-08-21T01:05:09;50037.36;;;-145.72;96.63
28648;BME280;17137;51.494;-0.262;2023-08-21T01:05:39;50040.07;;;-145.72;96.51
28648;BME280;17137;51.494;-0.262;2023-08-21T01:06:10;50037.36;;;-145.72;96.44
28648;BME280;17137;51.494;-0.262;2023-08-21T01:06:40;50036.13;;;-145.72;96.72
28648;BME280;17137;51.494;-0.262;2023-08-21T01:07:10;50045.37;;;-145.72;96.61
28648;BME280;17137;51.494;-0.262;2023-08-21T01:07:46;50043.53;;;-145.72;96.80
28648;BME280;17137;51.494;-0.262;2023-08-21T01:08:25;50044.39;;;-145.72;96.93
28648;BME280;17137;51.494;-0.262;2023-08-21T01:09:02;50056.59;;;-145.72;96.94
28648;BME280;17137;51.494;-0.262;2023-08-21T01:09:39;50045.00;;;-145.72;96.87
28648;BME280;17137;51.494;-0.262;2023-08-21T01:10:18;50043.90;;;-145.72;96.69
28648;BME280;17137;51.494;-0.262;2023-08-21T01:10:54;50043.28;;;-145.72;96.83
28648;BME280;17137;51.494;-0.262;2023-08-21T01:11:34;50037.86;;;-145.72;96.70
28648;BME280;17137;51.494;-0.262;2023-08-21T01:12:12;50029.97;;;-145.72;96.46
28648;BME280;17137;51.494;-0.262;2023-08-21T01:12:52;50049.69;;;-145.72;97.59
28648;BME280;17137;51.494;-0.262;2023-08-21T01:13:39;50056.96;;;-145.72;98.29
28648;BME280;17137;51.494;-0.262;2023-08-21T01:14:23;50041.92;;;-145.72;97.86
28648;BME280;17137;51.494;-0.262;2023-08-21T01:15:00;50043.53;;;-145.72;97.50
28648;BME280;17137;51.494;-0.262;2023-08-21T01:15:32;50047.10;;;-145.72;97.41
28648;BME280;17137;51.494;-0.262;2023-08-21T01:16:03;50039.46;;;-145.72;97.17
28648;BME280;17137;51.494;-0.262;2023-08-21T01:16:37;50036.38;;;-145.72;97.04
28648;BME280;17137;51.494;-0.262;2023-08-21T01:17:10;50048.58;;;-145.72;97.07
28648;BME280;17137;51.494;-0.262;2023-08-21T01:17:42;50047.47;;;-145.72;97.04
28648;BME280;17137;51.494;-0.262;2023-08-21T01:18:14;50050.06;;;-145.72;97.77
28648;BME280;17137;51.494;-0.262;2023-08-21T01:18:48;50056.84;;;-145.72;97.85
28648;BME280;17137;51.494;-0.262;2023-08-21T01:19:26;50045.00;;;-145.72;97.86
28648;BME280;17137;51.494;-0.262;2023-08-21T01:20:00;50040.81;;;-145.72;97.66
28648;BME280;17137;51.494;-0.262;2023-08-21T01:20:31;50057.21;;;-145.72;97.70
28648;BME280;17137;51.494;-0.262;2023-08-21T01:21:03;50043.77;;;-145.72;97.56
28648;BME280;17137;51.494;-0.262;2023-08-21T01:21:34;50045.00;;;-145.72;97.32
28648;BME280;17137;51.494;-0.262;2023-08-21T01:22:05;50047.59;;;-145.72;97.27
28648;BME280;17137;51.494;-0.262;2023-08-21T01:22:37;50044.76;;;-145.72;97.37
28648;BME280;17137;51.494;-0.262;2023-08-21T01:23:08;50046.36;;;-145.72;97.54
28648;BME280;17137;51.494;-0.262;2023-08-21T01:23:40;50053.76;;;-145.72;97.58
28648;BME280;17137;51.494;-0.262;2023-08-21T01:24:10;50056.84;;;-145.72;97.37
28648;BME280;17137;51.494;-0.262;2023-08-21T01:24:41;50047.47;;;-145.72;97.20
28648;BME280;17137;51.494;-0.262;2023-08-21T01:25:12;50052.15;;;-145.72;97.53
28648;BME280;17137;51.494;-0.262;2023-08-21T01:25:43;50053.02;;;-145.72;97.50
28648;BME280;17137;51.494;-0.262;2023-08-21T01:26:13;50061.77;;;-145.72;98.02
28648;BME280;17137;51.494;-0.262;2023-08-21T01:26:44;50061.89;;;-145.72;97.81
28648;BME280;17137;51.494;-0.262;2023-08-21T01:27:14;50053.02;;;-145.72;97.57
28648;BME280;17137;51.494;-0.262;2023-08-21T01:27:47;50055.85;;;-145.72;97.36
28648;BME280;17137;51.494;-0.262;2023-08-21T01:28:18;50047.35;;;-145.72;97.41
28648;BME280;17137;51.494;-0.262;2023-08-21T01:28:48;50052.03;;;-145.72;97.30
28648;BME280;17137;51.494;-0.262;2023-08-21T01:29:19;50051.54;;;-145.72;97.08
28648;BME280;17137;51.494;-0.262;2023-08-21T01:29:50;50053.14;;;-145.72;97.37
28648;BME280;17137;51.494;-0.262;2023-08-21T01:30:20;50060.29;;;-145.72;97.65
28648;BME280;17137;51.494;-0.262;2023-08-21T01:30:53;50063.86;;;-145.72;97.85
28648;BME280;17137;51.494;-0.262;2023-08-21T01:31:32;50057.82;;;-145.72;97.70
28648;BME280;17137;51.494;-0.262;2023-08-21T01:32:07;50046.61;;;-145.72;97.60
28648;BME280;17137;51.494;-0.262;2023-08-21T01:32:48;50065.10;;;-145.72;98.08
28648;BME280;17137;51.494;-0.262;2023-08-21T01:33:23;50069.16;;;-145.72;98.38
28648;BME280;17137;51.494;-0.262;2023-08-21T01:33:59;50069.16;;;-145.72;98.32
28648;BME280;17137;51.494;-0.262;2023-08-21T01:34:31;50073.23;;;-145.72;99.00
28648;BME280;17137;51.494;-0.262;2023-08-21T01:35:03;50061.28;;;-145.72;98.77
28648;BME280;17137;51.494;-0.262;2023-08-21T01:35:34;50059.30;;;-145.72;98.51
28648;BME280;17137;51.494;-0.262;2023-08-21T01:36:05;50058.32;;;-145.72;98.25
28648;BME280;17137;51.494;-0.262;2023-08-21T01:36:36;50050.43;;;-145.72;98.02
28648;BME280;17137;51.494;-0.262;2023-08-21T01:37:07;50052.28;;;-145.72;97.89
28648;BME280;17137;51.494;-0.262;2023-08-21T01:37:39;50063.00;;;-145.72;98.06
28648;BME280;17137;51.494;-0.262;2023-08-21T01:38:09;50061.89;;;-145.72;98.20
28648;BME280;17137;51.494;-0.262;2023-08-21T01:38:40;50052.15;;;-145.72;98.23
28648;BME280;17137;51.494;-0.262;2023-08-21T01:39:11;50053.26;;;-145.72;98.13
28648;BME280;17137;51.494;-0.262;2023-08-21T01:39:42;50057.82;;;-145.72;98.17
28648;BME280;17137;51.494;-0.262;2023-08-21T01:40:12;50044.88;;;-145.72;98.35
28648;BME280;17137;51.494;-0.262;2023-08-21T01:40:49;50064.97;;;-145.72;98.31
28648;BME280;17137;51.494;-0.262;2023-08-21T01:41:20;50055.48;;;-145.72;98.20
28648;BME280;17137;51.494;-0.262;2023-08-21T01:41:53;50056.59;;;-145.72;98.13
28648;BME280;17137;51.494;-0.262;2023-08-21T01:42:23;50051.41;;;-145.72;97.99
28648;BME280;17137;51.494;-0.262;2023-08-21T01:42:54;50066.08;;;-145.72;97.86
28648;BME280;17137;51.494;-0.262;2023-08-21T01:43:24;50053.51;;;-145.72;97.55
28648;BME280;17137;51.494;-0.262;2023-08-21T01:43:54;50060.41;;;-145.72;98.00
28648;BME280;17137;51.494;-0.262;2023-08-21T01:44:25;50071.75;;;-145.72;98.49
28648;BME280;17137;51.494;-0.262;2023-08-21T01:44:55;50065.47;;;-145.72;98.58
28648;BME280;17137;51.494;-0.262;2023-08-21T01:45:26;50055.36;;;-145.72;98.41
28648;BME280;17137;51.494;-0.262;2023-08-21T01:45:57;50056.71;;;-145.72;98.32
28648;BME280;17137;51.494;-0.262;2023-08-21T01:46:27;50049.81;;;-145.72;97.96
28648;BME280;17137;51.494;-0.262;2023-08-21T01:46:58;50050.92;;;-145.72;97.88
28648;BME280;17137;51.494;-0.262;2023-08-21T01:47:28;50059.43;;;-145.72;97.76
28648;BME280;17137;51.494;-0.262;2023-08-21T01:47:58;50051.04;;;-145.72;97.60
28648;BME280;17137;51.494;-0.262;2023-08-21T01:48:29;50061.28;;;-145.72;97.64
28648;BME280;17137;51.494;-0.262;2023-08-21T01:48:59;50057.08;;;-145.72;97.58
28648;BME280;17137;51.494;-0.262;2023-08-21T01:49:30;50058.93;;;-145.72;97.37
28648;BME280;17137;51.494;-0.262;2023-08-21T01:50:00;50055.73;;;-145.72;97.24
28648;BME280;17137;51.494;-0.262;2023-08-21T01:50:31;50069.16;;;-145.72;97.84
28648;BME280;17137;51.494;-0.262;2023-08-21T01:51:02;50056.71;;;-145.72;97.72
28648;BME280;17137;51.494;-0.262;2023-08-21T01:51:33;50056.10;;;-145.72;97.64
28648;BME280;17137;51.494;-0.262;2023-08-21T01:52:03;50060.41;;;-145.72;97.46
28648;BME280;17137;51.494;-0.262;2023-08-21T01:52:34;50065.84;;;-145.72;97.54
28648;BME280;17137;51.494;-0.262;2023-08-21T01:53:04;50063.86;;;-145.72;97.89
28648;BME280;17137;51.494;-0.262;2023-08-21T01:53:34;50061.65;;;-145.72;98.04
28648;BME280;17137;51.494;-0.262;2023-08-21T01:54:10;50077.30;;;-145.72;98.53
28648;BME280;17137;51.494;-0.262;2023-08-21T01:54:40;50072.37;;;-145.72;99.12
28648;BME280;17137;51.494;-0.262;2023-08-21T01:55:11;50064.48;;;-145.72;98.73
28648;BME280;17137;51.494;-0.262;2023-08-21T01:55:41;50072.25;;;-145.72;98.50
28648;BME280;17137;51.494;-0.262;2023-08-21T01:56:12;50059.80;;;-145.72;98.32
28648;BME280;17137;51.494;-0.262;2023-08-21T01:56:42;50064.23;;;-145.72;98.25
28648;BME280;17137;51.494;-0.262;2023-08-21T01:57:12;50076.68;;;-145.72;98.23
28648;BME280;17137;51.494;-0.262;2023-08-21T01:57:42;50076.07;;;-145.72;98.75
28648;BME280;17137;51.494;-0.262;2023-08-21T01:58:13;50079.64;;;-145.72;98.97
28648;BME280;17137;51.494;-0.262;2023-08-21T01:58:43;50065.96;;;-145.72;98.92
28648;BME280;17137;51.494;-0.262;2023-08-21T01:59:15;50065.34;;;-145.72;98.77
28648;BME280;17137;51.494;-0.262;2023-08-21T01:59:46;50065.96;;;-145.72;98.82
28648;BME280;17137;51.494;-0.262;2023-08-21T02:00:17;50071.38;;;-145.72;98.92
28648;BME280;17137;51.494;-0.262;2023-08-21T02:00:47;50064.60;;;-145.72;98.80
28648;BME280;17137;51.494;-0.262;2023-08-21T02:01:18;50072.25;;;-145.72;99.05
28648;BME280;17137;51.494;-0.262;2023-08-21T02:01:48;50077.79;;;-145.72;99.61
28648;BME280;17137;51.494;-0.262;2023-08-21T02:02:19;50076.44;;;-145.72;99.51
28648;BME280;17137;51.494;-0.262;2023-08-21T02:02:49;50087.28;;;-145.72;99.84
28648;BME280;17137;51.494;-0.262;2023-08-21T02:03:19;50083.96;;;-145.72;100.00
28648;BME280;17137;51.494;-0.262;2023-08-21T02:03:50;50077.30;;;-145.72;99.92
28648;BME280;17137;51.494;-0.262;2023-08-21T02:04:20;50079.76;;;-145.72;99.36
28648;BME280;17137;51.494;-0.262;2023-08-21T02:04:51;50082.85;;;-145.72;99.78
28648;BME280;17137;51.494;-0.262;2023-08-21T02:05:21;50085.68;;;-145.72;100.00
28648;BME280;17137;51.494;-0.262;2023-08-21T02:05:55;50089.38;;;-145.72;100.00
28648;BME280;17137;51.494;-0.262;2023-08-21T02:06:25;50086.54;;;-145.72;99.51
28648;BME280;17137;51.494;-0.262;2023-08-21T02:06:56;50073.97;;;-145.72;99.40
28648;BME280;17137;51.494;-0.262;2023-08-21T02:07:26;50067.44;;;-145.72;99.30
28648;BME280;17137;51.494;-0.262;2023-08-21T02:07:56;50071.01;;;-145.72;99.23
28648;BME280;17137;51.494;-0.262;2023-08-21T02:08:31;50074.22;;;-145.72;99.13
28648;BME280;17137;51.494;-0.262;2023-08-21T02:09:01;50073.72;;;-145.72;99.86
28648;BME280;17137;51.494;-0.262;2023-08-21T02:09:32;50079.89;;;-145.72;99.67
28648;BME280;17137;51.494;-0.262;2023-08-21T02:10:02;50070.03;;;-145.72;99.24
28648;BME280;17137;51.494;-0.262;2023-08-21T02:10:32;50068.42;;;-145.72;98.84
28648;BME280;17137;51.494;-0.262;2023-08-21T02:11:03;50061.03;;;-145.72;98.54
28648;BME280;17137;51.494;-0.262;2023-08-21T02:11:33;50066.95;;;-145.72;98.45
28648;BME280;17137;51.494;-0.262;2023-08-21T02:12:04;50073.85;;;-145.72;98.84
28648;BME280;17137;51.494;-0.262;2023-08-21T02:12:35;50071.88;;;-145.72;98.93
28648;BME280;17137;51.494;-0.262;2023-08-21T02:13:05;50076.07;;;-145.72;98.77
28648;BME280;17137;51.494;-0.262;2023-08-21T02:13:36;50076.68;;;-145.72;98.83
28648;BME280;17137;51.494;-0.262;2023-08-21T02:14:06;50077.30;;;-145.72;98.84
28648;BME280;17137;51.494;-0.262;2023-08-21T02:14:36;50073.60;;;-145.72;98.94
28648;BME280;17137;51.494;-0.262;2023-08-21T02:15:08;50066.33;;;-145.72;98.69
28648;BME280;17137;51.494;-0.262;2023-08-21T02:15:39;50068.18;;;-145.72;98.48
28648;BME280;17137;51.494;-0.262;2023-08-21T02:16:09;50072.00;;;-145.72;98.61
28648;BME280;17137;51.494;-0.262;2023-08-21T02:16:39;50068.30;;;-145.72;98.39
28648;BME280;17137;51.494;-0.262;2023-08-21T02:17:10;50083.71;;;-145.72;98.66
28648;BME280;17137;51.494;-0.262;2023-08-21T02:17:40;50063.62;;;-145.72;98.63
28648;BME280;17137;51.494;-0.262;2023-08-21T02:18:11;50074.71;;;-145.72;98.47
28648;BME280;17137;51.494;-0.262;2023-08-21T02:18:41;50081.74;;;-145.72;98.29
28648;BME280;17137;51.494;-0.262;2023-08-21T02:19:12;50074.71;;;-145.72;98.39
28648;BME280;17137;51.494;-0.262;2023-08-21T02:19:42;50070.15;;;-145.72;98.11
28648;BME280;17137;51.494;-0.262;2023-08-21T02:20:12;50073.97;;;-145.72;98.07
28648;BME280;17137;51.494;-0.262;2023-08-21T02:20:43;50075.94;;;-145.72;98.12
28648;BME280;17137;51.494;-0.262;2023-08-21T02:21:13;50071.01;;;-145.72;97.98
28648;BME280;17137;51.494;-0.262;2023-08-21T02:21:44;50076.44;;;-145.72;98.18
28648;BME280;17137;51.494;-0.262;2023-08-21T02:22:14;50085.68;;;-145.72;98.46
28648;BME280;17137;51.494;-0.262;2023-08-21T02:22:44;50075.82;;;-145.72;98.32
28648;BME280;17137;51.494;-0.262;2023-08-21T02:23:15;50078.29;;;-145.72;98.30
28648;BME280;17137;51.494;-0.262;2023-08-21T02:23:45;50085.43;;;-145.72;99.15
28648;BME280;17137;51.494;-0.262;2023-08-21T02:24:16;50081.98;;;-145.72;99.03
28648;BME280;17137;51.494;-0.262;2023-08-21T02:24:47;50082.60;;;-145.72;98.81
28648;BME280;17137;51.494;-0.262;2023-08-21T02:25:18;50083.71;;;-145.72;98.95
28648;BME280;17137;51.494;-0.262;2023-08-21T02:25:48;50078.53;;;-145.72;98.97
28648;BME280;17137;51.494;-0.262;2023-08-21T02:26:19;50080.26;;;-145.72;98.98
28648;BME280;17137;51.494;-0.262;2023-08-21T02:26:49;50077.42;;;-145.72;98.86
28648;BME280;17137;51.494;-0.262;2023-08-21T02:27:19;50082.60;;;-145.72;98.91
28648;BME280;17137;51.494;-0.262;2023-08-21T02:27:50;50072.37;;;-145.72;98.81
28648;BME280;17137;51.494;-0.262;2023-08-21T02:28:20;50078.78;;;-145.72;98.69
28648;BME280;17137;51.494;-0.262;2023-08-21T02:28:51;50070.15;;;-145.72;98.82
28648;BME280;17137;51.494;-0.262;2023-08-21T02:29:21;50076.68;;;-145.72;98.83
28648;BME280;17137;51.494;-0.262;2023-08-21T02:29:51;50064.36;;;-145.72;98.80
28648;BME280;17137;51.494;-0.262;2023-08-21T02:30:23;50076.31;;;-145.72;98.67
28648;BME280;17137;51.494;-0.262;2023-08-21T02:30:59;50076.19;;;-145.72;98.48
28648;BME280;17137;51.494;-0.262;2023-08-21T02:31:30;50072.37;;;-145.72;98.24
28648;BME280;17137;51.494;-0.262;2023-08-21T02:32:00;50083.22;;;-145.72;98.38
28648;BME280;17137;51.494;-0.262;2023-08-21T02:32:30;50073.48;;;-145.72;98.23
28648;BME280;17137;51.494;-0.262;2023-08-21T02:33:01;50074.09;;;-145.72;98.18
28648;BME280;17137;51.494;-0.262;2023-08-21T02:33:31;50068.42;;;-145.72;98.42
28648;BME280;17137;51.494;-0.262;2023-08-21T02:34:01;50068.30;;;-145.72;98.34
28648;BME280;17137;51.494;-0.262;2023-08-21T02:34:32;50078.78;;;-145.72;98.66
28648;BME280;17137;51.494;-0.262;2023-08-21T02:35:02;50081.12;;;-145.72;98.72
28648;BME280;17137;51.494;-0.262;2023-08-21T02:35:38;50085.80;;;-145.72;98.61
28648;BME280;17137;51.494;-0.262;2023-08-21T02:36:08;50083.71;;;-145.72;98.42
28648;BME280;17137;51.494;-0.262;2023-08-21T02:36:39;50089.26;;;-145.72;98.67
28648;BME280;17137;51.494;-0.262;2023-08-21T02:37:09;50103.43;;;-145.72;99.56
28648;BME280;17137;51.494;-0.262;2023-08-21T02:37:39;50092.34;;;-145.72;99.47
28648;BME280;17137;51.494;-0.262;2023-08-21T02:38:10;50084.20;;;-145.72;99.01
28648;BME280;17137;51.494;-0.262;2023-08-21T02:38:40;50076.31;;;-145.72;98.69
28648;BME280;17137;51.494;-0.262;2023-08-21T02:39:10;50094.06;;;-145.72;99.00